Time;durP1;ratioP1;P1;durP2;ratioP2;P2;SDS_P1;SDS_P2;PMS_P1;PMS_P2;Temp;Humidity;BMP_temperature;BMP_pressure;BME280_temperature;BME280_humidity;BME280_pressure;Samples;Min_cycle;Max_cycle;Signal;HPM_P1;HPM_P2
2021/03/18 00:02:01;;;;;;;24.35;22.67;;;2.60;84.30;;;;;;5033824;28;20201;-77
2021/03/18 00:04:27;;;;;;;22.73;21.33;;;2.60;84.70;;;;;;5033774;28;20292;-76
2021/03/18 00:06:53;;;;;;;24.17;22.40;;;2.70;84.60;;;;;;5033450;28;20223;-77
2021/03/18 00:09:21;;;;;;;23.58;21.88;;;2.70;83.90;;;;;;5033610;28;20217;-76
2021/03/18 00:11:50;;;;;;;23.60;22.15;;;2.70;84.30;;;;;;5033691;28;20205;-77
2021/03/18 00:14:19;;;;;;;23.92;22.25;;;2.90;83.20;;;;;;5033571;28;20204;-77
2021/03/18 00:16:46;;;;;;;23.77;22.33;;;2.90;82.50;;;;;;5033307;28;20244;-76
2021/03/18 00:19:14;;;;;;;23.92;22.38;;;2.80;82.60;;;;;;5033614;28;20213;-76
2021/03/18 00:21:40;;;;;;;24.05;22.20;;;2.90;83.40;;;;;;5033480;28;20205;-77
2021/03/18 00:24:08;;;;;;;23.40;21.80;;;2.70;83.60;;;;;;5033207;28;20209;-76
2021/03/18 00:26:36;;;;;;;23.48;21.73;;;2.70;83.60;;;;;;5033028;28;20217;-76
2021/03/18 00:29:04;;;;;;;24.95;23.25;;;2.80;83.10;;;;;;5033288;28;20217;-77
2021/03/18 00:31:33;;;;;;;24.10;22.35;;;2.80;83.10;;;;;;5033256;28;20201;-77
2021/03/18 00:34:00;;;;;;;22.88;21.48;;;2.80;83.50;;;;;;5033324;28;20197;-77
2021/03/18 00:36:28;;;;;;;24.10;22.50;;;2.90;82.90;;;;;;5032904;28;20197;-76
2021/03/18 00:38:55;;;;;;;23.70;22.10;;;2.90;81.70;;;;;;5032898;28;20232;-76
2021/03/18 00:41:22;;;;;;;23.42;21.98;;;2.90;81.60;;;;;;5033096;28;20255;-76
2021/03/18 00:43:48;;;;;;;23.30;22.00;;;2.70;81.60;;;;;;5032886;28;20758;-77
2021/03/18 00:46:15;;;;;;;24.13;22.73;;;2.70;81.90;;;;;;5032649;28;20232;-76
2021/03/18 00:48:41;;;;;;;23.45;21.95;;;2.70;82.40;;;;;;5032919;28;20729;-76
2021/03/18 00:51:10;;;;;;;24.15;22.40;;;2.70;82.50;;;;;;5032570;28;20201;-77
2021/03/18 00:53:40;;;;;;;22.92;21.48;;;2.70;82.10;;;;;;5032810;28;20254;-77
2021/03/18 00:56:11;;;;;;;23.83;22.15;;;2.70;83.00;;;;;;5032475;28;20193;-77
2021/03/18 00:58:38;;;;;;;23.83;22.23;;;2.80;83.10;;;;;;5032742;28;20256;-76
2021/03/18 01:01:06;;;;;;;24.02;22.52;;;2.90;82.10;;;;;;5032745;28;20201;-76
2021/03/18 01:03:34;;;;;;;23.75;22.35;;;2.90;80.00;;;;;;5032870;28;20193;-77
2021/03/18 01:06:04;;;;;;;23.10;21.70;;;2.80;79.80;;;;;;5032320;28;20282;-77
2021/03/18 01:08:31;;;;;;;24.38;22.73;;;2.80;79.90;;;;;;5032587;28;20204;-77
2021/03/18 01:11:01;;;;;;;23.45;22.05;;;2.80;79.50;;;;;;5032606;28;20208;-77
2021/03/18 01:13:28;;;;;;;23.50;22.13;;;2.80;79.50;;;;;;5032729;28;20254;-77
2021/03/18 01:15:59;;;;;;;23.83;22.42;;;2.70;79.90;;;;;;5032383;28;20198;-77
2021/03/18 01:18:29;;;;;;;23.83;22.17;;;2.80;80.20;;;;;;5032608;28;20201;-76
2021/03/18 01:20:55;;;;;;;23.83;22.50;;;2.80;79.30;;;;;;5032651;28;20556;-77
2021/03/18 01:23:22;;;;;;;23.35;22.15;;;2.90;79.60;;;;;;5032556;28;20213;-76
2021/03/18 01:25:48;;;;;;;23.35;21.90;;;2.90;79.20;;;;;;5032590;28;20227;-77
2021/03/18 01:28:15;;;;;;;24.08;22.67;;;2.80;79.70;;;;;;5032465;28;20617;-76
2021/03/18 01:30:42;;;;;;;23.33;21.75;;;2.70;79.80;;;;;;5032386;28;20207;-77
2021/03/18 01:33:09;;;;;;;23.65;22.40;;;2.60;80.10;;;;;;5032528;28;20198;-77
2021/03/18 01:35:36;;;;;;;24.00;22.70;;;2.60;80.70;;;;;;5032248;28;20532;-76
2021/03/18 01:38:03;;;;;;;23.58;21.88;;;2.60;80.70;;;;;;5032396;28;20297;-77
2021/03/18 01:40:33;;;;;;;24.50;22.95;;;2.70;80.30;;;;;;5032309;28;20219;-77
2021/03/18 01:43:00;;;;;;;23.90;22.30;;;2.60;79.90;;;;;;5032323;28;20259;-76
2021/03/18 01:45:27;;;;;;;23.52;22.02;;;2.60;79.80;;;;;;5032295;28;20224;-76
2021/03/18 01:47:56;;;;;;;24.20;22.70;;;2.60;80.00;;;;;;5032323;28;20686;-77
2021/03/18 01:50:24;;;;;;;23.52;22.13;;;2.50;81.90;;;;;;5032079;28;20221;-76
2021/03/18 01:52:51;;;;;;;24.35;22.85;;;2.60;81.40;;;;;;5032446;28;20206;-77
2021/03/18 01:55:22;;;;;;;23.50;22.20;;;2.70;81.00;;;;;;5034927;28;20659;-77
2021/03/18 01:57:49;;;;;;;23.80;22.42;;;2.80;80.90;;;;;;5034211;28;20208;-77
2021/03/18 02:00:17;;;;;;;24.90;23.15;;;2.90;80.20;;;;;;5032499;28;20229;-76
2021/03/18 02:02:44;;;;;;;23.40;22.10;;;2.80;79.90;;;;;;5032311;28;20198;-76
2021/03/18 02:05:12;;;;;;;23.92;22.33;;;2.80;80.60;;;;;;5033265;28;20224;-76
2021/03/18 02:07:39;;;;;;;22.38;20.88;;;2.80;80.90;;;;;;5036232;28;20284;-77
2021/03/18 02:10:08;;;;;;;22.67;21.25;;;2.80;82.80;;;;;;5036229;28;20221;-76
2021/03/18 02:12:35;;;;;;;23.33;21.92;;;2.90;82.40;;;;;;5036271;28;20201;-77
2021/03/18 02:15:02;;;;;;;23.10;21.80;;;2.80;82.40;;;;;;5035830;28;21044;-76
2021/03/18 02:17:37;;;;;;;23.15;21.80;;;2.90;82.60;;;;;;5036033;28;20215;-77
2021/03/18 02:20:49;;;;;;;24.38;22.98;;;2.90;83.00;;;;;;5036040;28;20212;-77
2021/03/18 02:24:02;;;;;;;22.90;21.60;;;2.90;83.00;;;;;;5035531;28;20205;-76
2021/03/18 02:27:06;;;;;;;22.20;20.92;;;2.90;83.60;;;;;;5035327;28;20217;-76
2021/03/18 02:30:08;;;;;;;1999.90;373.08;;;2.80;84.20;;;;;;5035531;28;20224;-77
2021/03/18 02:32:48;;;;;;;1999.90;348.55;;;2.70;90.80;;;;;;5030392;28;20331;-77
2021/03/18 02:35:26;;;;;;;21.00;19.60;;;2.60;94.70;;;;;;5035358;28;20197;-77
2021/03/18 02:38:07;;;;;;;21.58;20.27;;;2.60;89.90;;;;;;5035456;28;20193;-76
2021/03/18 02:40:37;;;;;;;22.92;21.40;;;2.50;88.60;;;;;;5035298;28;20231;-77
2021/03/18 02:43:08;;;;;;;21.70;20.23;;;2.60;88.10;;;;;;5035289;28;20663;-77
2021/03/18 02:45:39;;;;;;;21.35;20.08;;;2.60;86.60;;;;;;5034820;28;20229;-77
2021/03/18 02:48:09;;;;;;;21.33;19.90;;;2.50;86.20;;;;;;5035027;28;20201;-77
2021/03/18 02:50:38;;;;;;;21.98;20.48;;;2.50;86.30;;;;;;5034704;28;20233;-77
2021/03/18 02:53:06;;;;;;;21.88;20.38;;;2.50;85.50;;;;;;5035014;28;20258;-77
2021/03/18 02:55:35;;;;;;;22.50;21.27;;;2.50;85.10;;;;;;5034529;28;20253;-77
2021/03/18 02:58:04;;;;;;;21.80;20.40;;;2.50;85.20;;;;;;5034839;28;20201;-77
2021/03/18 03:00:30;;;;;;;21.75;20.15;;;2.50;85.20;;;;;;5034830;28;20217;-77
2021/03/18 03:02:57;;;;;;;22.88;21.40;;;2.40;85.50;;;;;;5034647;28;20193;-77
2021/03/18 03:05:25;;;;;;;23.45;22.05;;;2.50;84.90;;;;;;5034585;28;20570;-77
2021/03/18 03:07:53;;;;;;;22.85;21.25;;;2.60;84.70;;;;;;5034610;28;20197;-77
2021/03/18 03:10:21;;;;;;;22.83;21.25;;;2.60;84.30;;;;;;5034562;28;20235;-77
2021/03/18 03:12:50;;;;;;;22.80;21.50;;;2.70;83.90;;;;;;5034590;28;20684;-77
2021/03/18 03:15:17;;;;;;;23.38;21.75;;;2.70;83.40;;;;;;5034458;28;20193;-77
2021/03/18 03:17:44;;;;;;;22.90;21.50;;;2.70;83.10;;;;;;5034228;28;20201;-76
2021/03/18 03:20:14;;;;;;;23.55;22.15;;;2.70;81.90;;;;;;5034474;28;20220;-77
2021/03/18 03:22:42;;;;;;;22.25;20.95;;;2.70;81.60;;;;;;5034280;28;20212;-77
2021/03/18 03:25:13;;;;;;;24.25;22.85;;;2.70;81.80;;;;;;5034460;28;20218;-77
2021/03/18 03:27:42;;;;;;;23.40;22.00;;;2.70;82.00;;;;;;5034200;28;20231;-77
2021/03/18 03:30:10;;;;;;;23.67;22.10;;;2.70;81.80;;;;;;5034253;28;20224;-77
2021/03/18 03:32:37;;;;;;;24.20;22.60;;;2.70;83.10;;;;;;5034158;28;20197;-77
2021/03/18 03:35:05;;;;;;;24.20;22.42;;;2.70;83.10;;;;;;5034131;28;20280;-77
2021/03/18 03:37:32;;;;;;;23.13;21.73;;;2.80;83.70;;;;;;5033907;28;20193;-77
2021/03/18 03:39:58;;;;;;;23.60;21.92;;;2.70;84.20;;;;;;5033826;28;20267;-77
2021/03/18 03:42:26;;;;;;;24.10;22.60;;;2.70;84.60;;;;;;5034023;28;20591;-77
2021/03/18 03:44:52;;;;;;;22.50;20.98;;;2.80;84.30;;;;;;5034000;28;20228;-77
2021/03/18 03:47:19;;;;;;;22.52;21.23;;;2.90;83.90;;;;;;5033634;28;20199;-77
2021/03/18 03:49:45;;;;;;;22.45;21.15;;;2.80;83.20;;;;;;5033839;28;20221;-77
2021/03/18 03:52:19;;;;;;;25.58;24.10;;;2.80;83.80;;;;;;5036131;28;20199;-76
2021/03/18 03:54:52;;;;;;;23.80;22.30;;;2.70;84.30;;;;;;5034153;28;20208;-77
2021/03/18 03:57:23;;;;;;;25.67;23.35;;;2.80;84.10;;;;;;5033610;28;20716;-76
2021/03/18 03:59:55;;;;;;;103.30;26.85;;;2.90;83.20;;;;;;5033717;28;20283;-77
2021/03/18 04:02:23;;;;;;;333.85;45.30;;;2.90;87.30;;;;;;5033762;28;20201;-76
2021/03/18 04:04:50;;;;;;;22.50;21.20;;;2.90;89.40;;;;;;5033562;28;20199;-77
2021/03/18 04:07:20;;;;;;;22.40;20.95;;;2.90;87.80;;;;;;5033250;28;20247;-76
2021/03/18 04:09:47;;;;;;;23.73;22.23;;;2.90;83.80;;;;;;5033563;28;20224;-77
2021/03/18 04:12:17;;;;;;;25.83;24.23;;;2.90;82.20;;;;;;5033487;28;20201;-77
2021/03/18 04:14:47;;;;;;;23.20;21.73;;;2.90;81.50;;;;;;5033577;28;20201;-77
2021/03/18 04:17:17;;;;;;;25.90;23.73;;;2.90;81.10;;;;;;5033181;28;20201;-77
2021/03/18 04:19:48;;;;;;;22.85;21.25;;;2.90;81.10;;;;;;5033330;28;20228;-76
2021/03/18 04:22:15;;;;;;;22.38;21.10;;;2.90;82.30;;;;;;5033225;28;20217;-77
2021/03/18 04:24:44;;;;;;;25.13;23.52;;;3.00;83.90;;;;;;5033192;28;20209;-77
2021/03/18 04:27:10;;;;;;;24.30;22.60;;;3.00;81.00;;;;;;5033141;28;20205;-77
2021/03/18 04:29:38;;;;;;;25.80;24.20;;;3.10;79.10;;;;;;5032655;28;20236;-76
2021/03/18 04:32:06;;;;;;;25.20;23.60;;;3.10;78.30;;;;;;5033174;28;20205;-77
2021/03/18 04:34:34;;;;;;;25.27;23.77;;;3.10;77.80;;;;;;5033069;28;20681;-77
2021/03/18 04:37:03;;;;;;;24.67;23.08;;;2.90;77.60;;;;;;5032830;28;20193;-77
2021/03/18 04:39:30;;;;;;;25.67;24.13;;;2.90;77.80;;;;;;5033002;28;20221;-77
2021/03/18 04:41:57;;;;;;;24.75;23.23;;;3.00;78.00;;;;;;5033172;28;20198;-77
2021/03/18 04:44:23;;;;;;;26.85;25.42;;;2.90;79.20;;;;;;5032985;28;20256;-77
2021/03/18 04:46:50;;;;;;;25.60;23.77;;;2.90;78.00;;;;;;5032894;28;20213;-77
2021/03/18 04:49:19;;;;;;;24.42;22.75;;;2.90;78.20;;;;;;5032817;28;20217;-77
2021/03/18 04:51:47;;;;;;;24.67;23.27;;;2.90;82.10;;;;;;5032581;28;20197;-77
2021/03/18 04:54:14;;;;;;;23.70;22.38;;;2.90;79.70;;;;;;5033012;28;20201;-77
2021/03/18 04:56:43;;;;;;;24.25;22.75;;;3.00;77.90;;;;;;5032612;28;20284;-77
2021/03/18 04:59:12;;;;;;;24.98;23.48;;;2.80;77.60;;;;;;5032820;28;20229;-77
2021/03/18 05:01:39;;;;;;;22.98;21.58;;;2.70;78.10;;;;;;5032822;28;20201;-77
2021/03/18 05:04:06;;;;;;;25.65;24.05;;;2.70;78.50;;;;;;5033037;28;20287;-77
2021/03/18 05:06:34;;;;;;;24.55;23.10;;;2.60;78.20;;;;;;5032617;28;20555;-77
2021/03/18 05:09:03;;;;;;;24.20;22.65;;;2.60;78.50;;;;;;5032605;28;20220;-76
2021/03/18 05:11:29;;;;;;;23.52;22.10;;;2.60;78.60;;;;;;5032595;28;20201;-77
2021/03/18 05:13:56;;;;;;;23.48;22.08;;;2.60;78.90;;;;;;5032750;28;20238;-77
2021/03/18 05:16:23;;;;;;;24.67;23.23;;;2.70;78.90;;;;;;5032413;28;20290;-77
2021/03/18 05:18:50;;;;;;;24.30;22.60;;;2.70;79.00;;;;;;5032519;28;20270;-77
2021/03/18 05:21:17;;;;;;;24.17;22.67;;;2.70;78.80;;;;;;5032493;28;20204;-77
2021/03/18 05:23:43;;;;;;;24.70;22.75;;;2.70;78.20;;;;;;5032430;28;20296;-76
2021/03/18 05:26:11;;;;;;;23.45;21.85;;;2.70;79.10;;;;;;5032238;28;20221;-77
2021/03/18 05:28:37;;;;;;;25.00;23.40;;;2.70;78.10;;;;;;5032385;28;20556;-76
2021/03/18 05:31:04;;;;;;;23.80;22.10;;;2.60;78.70;;;;;;5032620;28;20228;-76
2021/03/18 05:33:30;;;;;;;23.90;22.40;;;2.60;78.80;;;;;;5032478;28;20197;-76
2021/03/18 05:35:57;;;;;;;23.80;22.40;;;2.70;80.00;;;;;;5032270;28;20193;-76
2021/03/18 05:38:23;;;;;;;23.50;21.90;;;2.90;78.70;;;;;;5032417;28;20201;-77
2021/03/18 05:40:55;;;;;;;24.42;22.92;;;3.00;78.10;;;;;;5034122;28;20250;-77
2021/03/18 05:43:23;;;;;;;24.75;23.25;;;2.90;78.20;;;;;;5036258;28;20203;-76
2021/03/18 05:45:50;;;;;;;25.55;24.02;;;2.80;78.40;;;;;;5036043;28;20575;-76
2021/03/18 05:48:18;;;;;;;25.30;23.80;;;2.80;79.20;;;;;;5036179;28;20193;-77
2021/03/18 05:50:45;;;;;;;24.95;23.23;;;2.90;79.40;;;;;;5036022;28;20205;-76
2021/03/18 05:53:12;;;;;;;25.92;24.20;;;2.80;79.10;;;;;;5036101;28;20197;-77
2021/03/18 05:55:39;;;;;;;25.90;23.92;;;2.70;79.50;;;;;;5035596;28;20220;-77
2021/03/18 05:58:06;;;;;;;23.83;22.35;;;2.80;80.30;;;;;;5035959;28;20243;-76
2021/03/18 06:00:35;;;;;;;26.92;24.80;;;2.90;81.30;;;;;;5035944;28;20221;-76
2021/03/18 06:03:01;;;;;;;25.02;23.15;;;3.00;81.90;;;;;;5035831;28;20540;-77
2021/03/18 06:05:28;;;;;;;22.70;21.27;;;3.00;82.10;;;;;;5035645;28;20257;-77
2021/03/18 06:07:54;;;;;;;24.05;22.55;;;3.00;82.40;;;;;;5035778;28;20207;-77
2021/03/18 06:10:22;;;;;;;24.05;22.45;;;3.10;82.30;;;;;;5035626;28;20752;-76
2021/03/18 06:12:50;;;;;;;125.10;29.08;;;3.10;81.80;;;;;;5035694;28;20198;-76
2021/03/18 06:15:17;;;;;;;66.72;23.92;;;3.10;83.90;;;;;;5035504;28;20196;-77
2021/03/18 06:17:45;;;;;;;21.33;19.60;;;3.20;93.70;;;;;;5035416;28;20197;-77
2021/03/18 06:20:14;;;;;;;807.35;114.60;;;3.20;94.20;;;;;;5035425;28;20222;-77
2021/03/18 06:22:43;;;;;;;19.85;18.55;;;3.30;95.70;;;;;;5035337;28;20295;-77
2021/03/18 06:25:21;;;;;;;20.63;19.38;;;3.50;93.70;;;;;;5035390;28;20308;-77
2021/03/18 06:27:48;;;;;;;22.13;20.48;;;3.50;90.30;;;;;;5035391;28;20212;-77
2021/03/18 06:30:16;;;;;;;24.60;23.10;;;3.60;86.90;;;;;;5035320;28;20217;-77
2021/03/18 06:32:42;;;;;;;24.05;22.45;;;3.50;84.70;;;;;;5035292;28;20204;-77
2021/03/18 06:35:11;;;;;;;26.15;24.48;;;3.60;83.80;;;;;;5035380;28;20193;-76
2021/03/18 06:37:41;;;;;;;24.23;22.77;;;3.80;83.00;;;;;;5035034;28;20205;-77
2021/03/18 06:40:13;;;;;;;25.00;23.00;;;3.90;83.40;;;;;;5035147;28;20217;-77
2021/03/18 06:42:42;;;;;;;77.43;25.98;;;4.10;83.40;;;;;;5035104;28;20201;-77
2021/03/18 06:45:11;;;;;;;1159.93;138.13;;;4.20;82.50;;;;;;5035100;28;20200;-77
2021/03/18 06:47:43;;;;;;;22.55;21.13;;;4.30;90.30;;;;;;5034902;28;20205;-77
2021/03/18 06:50:13;;;;;;;494.77;64.68;;;4.40;89.00;;;;;;5034759;28;20221;-77
2021/03/18 06:52:41;;;;;;;27.38;24.48;;;4.40;91.20;;;;;;5034458;28;20212;-77
2021/03/18 06:55:10;;;;;;;22.73;20.63;;;4.50;87.20;;;;;;5034832;28;20205;-78
2021/03/18 06:57:37;;;;;;;102.63;28.00;;;4.50;87.40;;;;;;5034849;28;20197;-77
2021/03/18 07:00:06;;;;;;;192.75;34.88;;;4.60;88.60;;;;;;5034637;28;20218;-77
2021/03/18 07:02:39;;;;;;;128.70;28.92;;;4.60;88.30;;;;;;5034879;28;20256;-78
2021/03/18 07:05:17;;;;;;;22.95;21.08;;;4.70;91.60;;;;;;5034654;28;20197;-77
2021/03/18 07:07:44;;;;;;;42.63;25.00;;;4.60;85.70;;;;;;5034607;28;20195;-77
2021/03/18 07:10:11;;;;;;;25.77;23.75;;;4.70;84.20;;;;;;5034501;28;20225;-77
2021/03/18 07:12:37;;;;;;;26.20;24.40;;;4.80;83.60;;;;;;5034557;28;20198;-77
2021/03/18 07:15:17;;;;;;;27.35;25.30;;;4.90;79.90;;;;;;5034550;28;20536;-77
2021/03/18 07:17:43;;;;;;;26.77;25.15;;;5.00;77.60;;;;;;5034542;28;20201;-77
2021/03/18 07:20:19;;;;;;;27.45;25.42;;;5.10;76.70;;;;;;5034571;28;20219;-77
2021/03/18 07:22:47;;;;;;;27.20;25.50;;;5.20;74.80;;;;;;5034514;28;20209;-78
2021/03/18 07:25:15;;;;;;;26.20;24.60;;;5.20;75.00;;;;;;5034407;28;20198;-78
2021/03/18 07:27:43;;;;;;;26.65;25.05;;;5.20;77.20;;;;;;5034383;28;20289;-78
2021/03/18 07:30:21;;;;;;;75.05;28.55;;;5.50;75.50;;;;;;5034123;28;20226;-78
2021/03/18 07:32:48;;;;;;;26.70;24.83;;;5.60;85.00;;;;;;5034374;28;20191;-78
2021/03/18 07:35:15;;;;;;;44.30;26.77;;;5.50;78.30;;;;;;5034234;28;20202;-78
2021/03/18 07:37:42;;;;;;;25.67;23.85;;;5.50;77.10;;;;;;5034039;28;20251;-78
2021/03/18 07:40:09;;;;;;;32.45;29.15;;;5.50;75.00;;;;;;5033970;28;20774;-77
2021/03/18 07:42:37;;;;;;;27.20;25.17;;;5.50;74.20;;;;;;5034431;28;20193;-78
2021/03/18 07:45:04;;;;;;;28.13;26.15;;;5.40;81.20;;;;;;5033931;28;20731;-77
2021/03/18 07:47:30;;;;;;;27.65;25.73;;;5.30;76.50;;;;;;5033672;28;20658;-77
2021/03/18 07:49:59;;;;;;;27.00;25.10;;;5.40;74.80;;;;;;5033599;28;20305;-77
2021/03/18 07:52:28;;;;;;;27.20;25.30;;;5.60;72.50;;;;;;5033799;28;20579;-77
2021/03/18 07:54:58;;;;;;;26.30;24.70;;;5.70;71.50;;;;;;5033813;28;20566;-77
2021/03/18 07:57:25;;;;;;;27.08;25.38;;;5.80;70.80;;;;;;5033638;28;20195;-77
2021/03/18 07:59:51;;;;;;;25.80;24.20;;;6.00;70.10;;;;;;5033630;28;20277;-77
2021/03/18 08:02:21;;;;;;;26.75;24.90;;;6.00;69.70;;;;;;5033231;28;20288;-77
2021/03/18 08:04:49;;;;;;;28.98;27.08;;;5.80;69.70;;;;;;5033162;28;20199;-77
2021/03/18 08:07:37;;;;;;;27.83;25.73;;;5.90;71.20;;;;;;5033335;28;20278;-77
2021/03/18 08:10:06;;;;;;;29.17;27.15;;;5.90;71.50;;;;;;5033569;28;20230;-77
2021/03/18 08:12:49;;;;;;;28.42;26.73;;;6.00;74.80;;;;;;5033560;28;20198;-77
2021/03/18 08:15:25;;;;;;;27.48;25.50;;;6.20;73.30;;;;;;5031826;28;20548;-77
2021/03/18 08:17:53;;;;;;;31.30;29.10;;;6.20;76.10;;;;;;5033627;28;20204;-77
2021/03/18 08:20:53;;;;;;;28.80;26.85;;;6.50;73.50;;;;;;5033594;28;20582;-77
2021/03/18 08:23:50;;;;;;;30.30;28.05;;;6.50;74.40;;;;;;5028197;28;20215;-77
2021/03/18 08:26:46;;;;;;;29.40;27.35;;;6.40;69.70;;;;;;4999211;28;20221;-77
2021/03/18 08:29:25;;;;;;;30.67;28.17;;;6.50;68.90;;;;;;5033219;28;20218;-77
2021/03/18 08:31:56;;;;;;;27.80;26.08;;;6.90;68.10;;;;;;5033231;28;20201;-77
2021/03/18 08:34:45;;;;;;;29.05;27.25;;;7.10;67.50;;;;;;5033223;28;20197;-77
2021/03/18 08:37:11;;;;;;;31.63;29.13;;;7.00;66.70;;;;;;5033007;28;20284;-77
2021/03/18 08:39:46;;;;;;;30.52;28.42;;;7.10;66.60;;;;;;5032886;28;20621;-77
2021/03/18 08:45:35;;;;;;;31.13;29.02;;;7.10;65.80;;;;;;5130994;27;20540;-78
2021/03/18 08:48:22;;;;;;;28.25;26.45;;;7.10;65.90;;;;;;5131212;27;20190;-77
2021/03/18 08:50:59;;;;;;;30.27;28.17;;;7.50;65.40;;;;;;5105437;28;20290;-77
2021/03/18 08:53:44;;;;;;;31.38;29.27;;;8.00;64.50;;;;;;5110325;28;20190;-77
2021/03/18 08:56:10;;;;;;;28.70;26.85;;;8.40;63.40;;;;;;5109572;28;20194;-78
2021/03/18 08:58:56;;;;;;;29.00;27.10;;;8.50;62.40;;;;;;5110235;28;20218;-77
2021/03/18 09:01:24;;;;;;;29.98;28.00;;;8.70;62.30;;;;;;5110411;28;20263;-77
2021/03/18 09:03:58;;;;;;;30.30;28.10;;;9.10;61.00;;;;;;5110233;28;20571;-77
2021/03/18 09:06:27;;;;;;;29.98;27.95;;;9.30;60.60;;;;;;5110069;28;20195;-77
2021/03/18 09:08:53;;;;;;;30.00;27.60;;;9.30;58.50;;;;;;5110044;28;20218;-78
2021/03/18 09:11:24;;;;;;;30.00;28.08;;;9.20;58.30;;;;;;5110029;28;20222;-78
2021/03/18 09:13:51;;;;;;;29.40;27.48;;;9.10;59.20;;;;;;5110134;28;20195;-77
2021/03/18 09:16:20;;;;;;;30.90;28.73;;;9.10;60.00;;;;;;5109875;28;20191;-78
2021/03/18 09:18:48;;;;;;;29.75;27.83;;;9.20;59.80;;;;;;5109830;28;20218;-77
2021/03/18 09:21:14;;;;;;;29.60;27.70;;;9.20;59.30;;;;;;5109980;28;20529;-77
2021/03/18 09:23:42;;;;;;;29.17;27.33;;;8.60;59.10;;;;;;5109651;28;20210;-77
2021/03/18 09:26:10;;;;;;;29.80;27.80;;;8.30;60.70;;;;;;5109556;28;20607;-78
2021/03/18 09:28:39;;;;;;;31.13;28.80;;;8.00;60.80;;;;;;5109743;28;20510;-77
2021/03/18 09:31:07;;;;;;;30.85;28.85;;;7.90;64.20;;;;;;5109848;28;20202;-77
2021/03/18 09:33:35;;;;;;;30.70;28.60;;;8.10;67.20;;;;;;5109772;28;20195;-77
2021/03/18 09:36:18;;;;;;;30.67;28.50;;;8.00;69.70;;;;;;5113085;28;20293;-78
2021/03/18 09:38:56;;;;;;;28.65;26.80;;;8.10;66.80;;;;;;5116692;28;20627;-78
2021/03/18 09:41:25;;;;;;;30.10;28.10;;;8.00;63.20;;;;;;5109529;28;20281;-78
2021/03/18 09:44:02;;;;;;;30.75;28.75;;;7.90;62.10;;;;;;5109364;28;20273;-77
2021/03/18 09:46:30;;;;;;;29.73;27.58;;;7.70;61.30;;;;;;5109212;28;20194;-78
2021/03/18 09:48:56;;;;;;;30.48;28.30;;;7.60;61.60;;;;;;5109265;28;20215;-77
2021/03/18 09:51:23;;;;;;;30.50;28.38;;;7.40;62.60;;;;;;5108850;28;20207;-77
2021/03/18 09:53:58;;;;;;;29.30;27.38;;;7.10;64.20;;;;;;5109174;28;20281;-77
2021/03/18 09:56:25;;;;;;;29.05;27.15;;;7.10;65.80;;;;;;5096119;28;20343;-77
2021/03/18 09:58:52;;;;;;;27.83;26.13;;;7.20;62.80;;;;;;5095549;28;20219;-77
2021/03/18 10:01:21;;;;;;;29.70;27.80;;;7.20;64.20;;;;;;5095471;28;20606;-77
2021/03/18 10:03:54;;;;;;;30.50;28.58;;;7.30;62.20;;;;;;5095490;28;20215;-77
2021/03/18 10:06:26;;;;;;;28.40;26.58;;;7.40;62.20;;;;;;5095346;28;20234;-77
2021/03/18 10:08:54;;;;;;;28.15;26.30;;;7.40;63.00;;;;;;5095461;28;20227;-77
2021/03/18 10:11:23;;;;;;;26.48;24.45;;;7.40;61.70;;;;;;5095318;28;20664;-77
2021/03/18 10:13:51;;;;;;;26.58;24.80;;;7.20;59.60;;;;;;5095247;28;20530;-77
2021/03/18 10:16:18;;;;;;;28.15;26.45;;;7.00;59.40;;;;;;5095058;28;20198;-77
2021/03/18 10:18:44;;;;;;;25.60;24.10;;;6.90;60.20;;;;;;5095111;28;20219;-77
2021/03/18 10:21:12;;;;;;;29.13;27.25;;;6.70;59.10;;;;;;5095280;28;20206;-77
2021/03/18 10:23:40;;;;;;;27.35;25.52;;;6.90;62.50;;;;;;5095134;28;20226;-77
2021/03/18 10:26:06;;;;;;;28.67;26.50;;;7.20;59.10;;;;;;5094903;28;20203;-77
2021/03/18 10:28:32;;;;;;;27.35;25.73;;;7.30;63.80;;;;;;5095187;28;20205;-77
2021/03/18 10:31:05;;;;;;;28.05;25.83;;;7.30;60.40;;;;;;5095149;28;20195;-77
2021/03/18 10:33:35;;;;;;;26.20;24.60;;;7.30;59.40;;;;;;5095193;28;20223;-77
2021/03/18 10:36:03;;;;;;;27.13;25.30;;;7.20;59.60;;;;;;5094905;28;20656;-77
2021/03/18 10:38:31;;;;;;;26.83;25.10;;;7.40;60.00;;;;;;5095136;28;20248;-77
2021/03/18 10:40:59;;;;;;;27.50;25.85;;;7.60;62.30;;;;;;5094711;28;20695;-77
2021/03/18 10:43:29;;;;;;;27.10;25.40;;;7.50;58.30;;;;;;5094648;28;20302;-77
2021/03/18 10:45:59;;;;;;;27.15;25.45;;;7.30;58.50;;;;;;5094815;28;20290;-77
2021/03/18 10:48:28;;;;;;;27.73;26.10;;;7.30;58.20;;;;;;5094688;28;20260;-77
2021/03/18 10:51:00;;;;;;;26.58;24.88;;;7.30;58.30;;;;;;5094579;28;20211;-77
2021/03/18 10:53:27;;;;;;;26.95;25.25;;;7.40;62.80;;;;;;5094612;28;20191;-77
2021/03/18 10:55:55;;;;;;;26.85;25.30;;;7.50;59.30;;;;;;5094279;28;20195;-77
2021/03/18 10:58:25;;;;;;;26.88;25.27;;;7.80;57.70;;;;;;5094701;28;20198;-77
2021/03/18 11:00:59;;;;;;;29.35;27.65;;;8.00;56.30;;;;;;5094711;28;20674;-77
2021/03/18 11:03:28;;;;;;;28.48;26.73;;;8.10;55.80;;;;;;5094398;28;20715;-76
2021/03/18 11:05:55;;;;;;;28.80;27.00;;;8.40;54.40;;;;;;5094047;28;20196;-77
2021/03/18 11:08:27;;;;;;;27.20;25.55;;;8.20;54.10;;;;;;5093518;28;20206;-77
2021/03/18 11:10:54;;;;;;;27.65;25.55;;;8.20;56.00;;;;;;5094451;28;20199;-77
2021/03/18 11:13:24;;;;;;;26.55;24.95;;;8.00;55.30;;;;;;5094291;28;20199;-77
2021/03/18 11:15:59;;;;;;;28.25;26.45;;;8.00;56.40;;;;;;5094085;28;20668;-77
2021/03/18 11:18:34;;;;;;;28.27;26.02;;;7.60;57.40;;;;;;5094050;28;20198;-77
2021/03/18 11:21:03;;;;;;;27.45;25.45;;;7.40;58.30;;;;;;5094165;28;20198;-77
2021/03/18 11:23:33;;;;;;;28.00;26.05;;;7.50;57.00;;;;;;5093907;28;20223;-77
2021/03/18 11:26:01;;;;;;;27.67;26.08;;;7.40;56.50;;;;;;5093935;28;20236;-77
2021/03/18 11:28:29;;;;;;;25.63;24.02;;;7.60;56.20;;;;;;5093887;28;20206;-77
2021/03/18 11:30:57;;;;;;;28.95;26.95;;;7.90;56.00;;;;;;5094206;28;20203;-77
2021/03/18 11:33:31;;;;;;;27.55;25.50;;;8.20;55.60;;;;;;5097614;28;20344;-77
2021/03/18 11:35:59;;;;;;;27.45;25.85;;;8.50;54.50;;;;;;5094720;28;20557;-77
2021/03/18 11:38:25;;;;;;;26.33;24.52;;;8.50;53.40;;;;;;5093818;28;20198;-77
2021/03/18 11:40:52;;;;;;;26.67;24.88;;;8.70;55.90;;;;;;5093764;28;20192;-77
2021/03/18 11:43:18;;;;;;;26.20;24.60;;;8.60;54.10;;;;;;5093358;28;20585;-78
2021/03/18 11:45:46;;;;;;;25.70;24.10;;;8.80;54.10;;;;;;5093611;28;20210;-77
2021/03/18 11:48:12;;;;;;;25.13;23.70;;;9.10;53.40;;;;;;5093605;28;20610;-77
2021/03/18 11:50:40;;;;;;;27.08;25.38;;;9.30;53.20;;;;;;5093341;28;20223;-77
2021/03/18 11:53:07;;;;;;;29.40;27.50;;;9.60;52.30;;;;;;5093580;28;20241;-77
2021/03/18 11:55:34;;;;;;;27.47;25.87;;;9.50;52.70;;;;;;5093295;28;20479;-76
2021/03/18 11:58:02;;;;;;;27.70;25.70;;;9.20;53.30;;;;;;5093432;28;20447;-77
2021/03/18 12:00:31;;;;;;;27.13;25.43;;;9.40;51.70;;;;;;5093426;28;20496;-77
2021/03/18 12:02:59;;;;;;;27.30;25.50;;;9.30;51.90;;;;;;5093320;28;20455;-77
2021/03/18 12:05:25;;;;;;;28.67;26.83;;;9.20;51.30;;;;;;5093297;28;20473;-77
2021/03/18 12:07:52;;;;;;;28.02;26.23;;;8.90;51.70;;;;;;5093124;28;20449;-77
2021/03/18 12:10:19;;;;;;;28.23;26.40;;;8.80;52.20;;;;;;5093020;28;20215;-76
2021/03/18 12:12:45;;;;;;;27.38;25.67;;;8.50;52.90;;;;;;5093213;28;20199;-78
2021/03/18 12:15:13;;;;;;;28.38;26.33;;;8.40;54.30;;;;;;5093166;28;20279;-76
2021/03/18 12:17:40;;;;;;;27.17;25.38;;;8.20;57.10;;;;;;5092996;28;20191;-77
2021/03/18 12:20:09;;;;;;;27.70;26.00;;;8.30;59.80;;;;;;5093078;28;20215;-77
2021/03/18 12:22:36;;;;;;;27.48;25.73;;;8.40;60.90;;;;;;5093043;28;20200;-78
2021/03/18 12:25:03;;;;;;;27.50;25.48;;;8.70;65.50;;;;;;5092925;28;20223;-78
2021/03/18 12:27:30;;;;;;;27.73;26.13;;;8.90;56.90;;;;;;5092902;28;20195;-78
2021/03/18 12:29:56;;;;;;;27.95;26.15;;;8.90;54.70;;;;;;5092865;28;20473;-77
2021/03/18 12:32:23;;;;;;;27.20;25.60;;;8.90;55.30;;;;;;5092962;28;20222;-78
2021/03/18 12:34:50;;;;;;;28.15;26.23;;;9.20;53.60;;;;;;5092979;28;20197;-78
2021/03/18 12:37:18;;;;;;;28.30;26.45;;;9.00;54.70;;;;;;5092645;28;20191;-78
2021/03/18 12:39:44;;;;;;;29.23;27.42;;;8.70;58.60;;;;;;5092672;28;20404;-78
2021/03/18 12:42:12;;;;;;;28.70;26.50;;;8.00;61.40;;;;;;5093045;28;20199;-77
2021/03/18 12:44:38;;;;;;;27.80;25.88;;;7.40;62.70;;;;;;5092552;28;20596;-77
2021/03/18 12:47:05;;;;;;;26.75;25.15;;;6.70;64.60;;;;;;5092493;28;20678;-77
2021/03/18 12:49:32;;;;;;;28.38;26.40;;;6.50;65.60;;;;;;5092708;28;20217;-77
2021/03/18 12:51:59;;;;;;;27.58;25.63;;;6.50;65.80;;;;;;5092280;28;20198;-77